sensor_id;sensor_type;location;lat;lon;timestamp;temperature;humidity
12477;DHT22;6303;51.504;6.300;2023-04-01T00:00:34;22.20;55.00
12477;DHT22;6303;51.504;6.300;2023-04-01T00:03:01;22.30;55.00
12477;DHT22;6303;51.504;6.300;2023-04-01T00:05:28;22.30;55.00
12477;DHT22;6303;51.504;6.300;2023-04-01T00:07:55;22.30;55.00
12477;DHT22;6303;51.504;6.300;2023-04-01T00:10:22;22.30;55.00
12477;DHT22;6303;51.504;6.300;2023-04-01T00:12:49;22.30;55.00
12477;DHT22;6303;51.504;6.300;2023-04-01T00:15:16;22.20;54.90
12477;DHT22;6303;51.504;6.300;2023-04-01T00:17:44;22.20;54.90
12477;DHT22;6303;51.504;6.300;2023-04-01T00:20:12;22.20;54.90
12477;DHT22;6303;51.504;6.300;2023-04-01T00:22:40;22.30;54.90
12477;DHT22;6303;51.504;6.300;2023-04-01T00:25:08;22.30;54.90
12477;DHT22;6303;51.504;6.300;2023-04-01T00:27:35;22.30;54.90
12477;DHT22;6303;51.504;6.300;2023-04-01T00:30:02;22.30;54.90
12477;DHT22;6303;51.504;6.300;2023-04-01T00:32:29;22.30;54.90
12477;DHT22;6303;51.504;6.300;2023-04-01T00:34:58;22.30;54.80
12477;DHT22;6303;51.504;6.300;2023-04-01T00:37:26;22.30;54.90
12477;DHT22;6303;51.504;6.300;2023-04-01T00:39:53;22.30;54.80
12477;DHT22;6303;51.504;6.300;2023-04-01T00:42:21;22.30;54.80
12477;DHT22;6303;51.504;6.300;2023-04-01T00:44:51;22.30;54.80
12477;DHT22;6303;51.504;6.300;2023-04-01T00:47:19;22.70;55.00
12477;DHT22;6303;51.504;6.300;2023-04-01T00:49:48;22.30;54.80
12477;DHT22;6303;51.504;6.300;2023-04-01T00:52:20;22.20;54.70
12477;DHT22;6303;51.504;6.300;2023-04-01T00:54:52;22.30;54.80
12477;DHT22;6303;51.504;6.300;2023-04-01T00:57:23;22.20;54.80
12477;DHT22;6303;51.504;6.300;2023-04-01T00:59:54;22.20;54.80
12477;DHT22;6303;51.504;6.300;2023-04-01T01:02:21;22.20;54.80
12477;DHT22;6303;51.504;6.300;2023-04-01T01:04:49;22.20;54.80
12477;DHT22;6303;51.504;6.300;2023-04-01T01:07:25;22.20;54.80
12477;DHT22;6303;51.504;6.300;2023-04-01T01:09:59;22.20;54.80
12477;DHT22;6303;51.504;6.300;2023-04-01T01:12:33;22.20;54.70
12477;DHT22;6303;51.504;6.300;2023-04-01T01:15:08;22.20;54.80
12477;DHT22;6303;51.504;6.300;2023-04-01T01:17:44;22.20;54.70
12477;DHT22;6303;51.504;6.300;2023-04-01T01:23:29;22.20;54.80
12477;DHT22;6303;51.504;6.300;2023-04-01T01:26:28;22.20;54.70
12477;DHT22;6303;51.504;6.300;2023-04-01T01:29:07;22.20;54.80
12477;DHT22;6303;51.504;6.300;2023-04-01T01:31:45;22.20;54.70
12477;DHT22;6303;51.504;6.300;2023-04-01T01:34:20;22.20;54.70
12477;DHT22;6303;51.504;6.300;2023-04-01T01:36:55;22.20;54.70
12477;DHT22;6303;51.504;6.300;2023-04-01T01:39:27;22.20;54.70
12477;DHT22;6303;51.504;6.300;2023-04-01T01:41:59;22.20;54.70
12477;DHT22;6303;51.504;6.300;2023-04-01T01:44:28;22.20;54.70
12477;DHT22;6303;51.504;6.300;2023-04-01T01:46:57;22.20;54.70
12477;DHT22;6303;51.504;6.300;2023-04-01T01:49:25;22.20;54.70
12477;DHT22;6303;51.504;6.300;2023-04-01T01:51:57;22.20;54.70
12477;DHT22;6303;51.504;6.300;2023-04-01T01:54:24;22.20;54.70
12477;DHT22;6303;51.504;6.300;2023-04-01T01:56:57;22.20;54.70
12477;DHT22;6303;51.504;6.300;2023-04-01T01:59:29;22.20;54.70
12477;DHT22;6303;51.504;6.300;2023-04-01T02:01:56;22.20;54.70
12477;DHT22;6303;51.504;6.300;2023-04-01T02:04:25;22.20;54.70
12477;DHT22;6303;51.504;6.300;2023-04-01T02:06:58;22.20;54.70
12477;DHT22;6303;51.504;6.300;2023-04-01T02:09:26;22.20;54.70
12477;DHT22;6303;51.504;6.300;2023-04-01T02:11:59;22.20;54.70
12477;DHT22;6303;51.504;6.300;2023-04-01T02:14:29;22.20;54.80
12477;DHT22;6303;51.504;6.300;2023-04-01T02:17:00;22.20;54.80
12477;DHT22;6303;51.504;6.300;2023-04-01T02:19:35;22.20;54.80
12477;DHT22;6303;51.504;6.300;2023-04-01T02:22:07;22.20;54.80
12477;DHT22;6303;51.504;6.300;2023-04-01T02:24:37;22.20;54.80
12477;DHT22;6303;51.504;6.300;2023-04-01T02:27:05;22.20;54.70
12477;DHT22;6303;51.504;6.300;2023-04-01T02:29:33;22.20;54.70
12477;DHT22;6303;51.504;6.300;2023-04-01T02:32:01;22.20;54.70
12477;DHT22;6303;51.504;6.300;2023-04-01T02:34:29;22.20;54.70
12477;DHT22;6303;51.504;6.300;2023-04-01T02:36:57;22.20;54.70
12477;DHT22;6303;51.504;6.300;2023-04-01T02:39:25;22.20;54.70
12477;DHT22;6303;51.504;6.300;2023-04-01T02:41:53;22.20;54.70
12477;DHT22;6303;51.504;6.300;2023-04-01T02:44:20;22.20;54.70
12477;DHT22;6303;51.504;6.300;2023-04-01T02:46:48;22.20;54.70
12477;DHT22;6303;51.504;6.300;2023-04-01T02:49:15;22.20;54.80
12477;DHT22;6303;51.504;6.300;2023-04-01T02:51:43;22.20;54.70
12477;DHT22;6303;51.504;6.300;2023-04-01T02:54:10;22.20;54.70
12477;DHT22;6303;51.504;6.300;2023-04-01T02:56:38;22.20;54.80
12477;DHT22;6303;51.504;6.300;2023-04-01T02:59:05;22.20;54.80
12477;DHT22;6303;51.504;6.300;2023-04-01T03:01:32;22.20;54.80
12477;DHT22;6303;51.504;6.300;2023-04-01T03:03:59;22.20;54.80
12477;DHT22;6303;51.504;6.300;2023-04-01T03:06:26;22.10;54.90
12477;DHT22;6303;51.504;6.300;2023-04-01T03:08:54;22.20;55.00
12477;DHT22;6303;51.504;6.300;2023-04-01T03:11:21;22.20;55.30
12477;DHT22;6303;51.504;6.300;2023-04-01T03:13:49;22.10;55.20
12477;DHT22;6303;51.504;6.300;2023-04-01T03:16:16;22.10;55.20
12477;DHT22;6303;51.504;6.300;2023-04-01T03:18:43;22.20;55.20
12477;DHT22;6303;51.504;6.300;2023-04-01T03:21:15;22.20;55.20
12477;DHT22;6303;51.504;6.300;2023-04-01T03:23:42;22.20;55.10
12477;DHT22;6303;51.504;6.300;2023-04-01T03:26:09;22.20;55.10
12477;DHT22;6303;51.504;6.300;2023-04-01T03:28:37;22.20;55.10
12477;DHT22;6303;51.504;6.300;2023-04-01T03:31:06;22.20;55.10
12477;DHT22;6303;51.504;6.300;2023-04-01T03:33:40;22.20;55.10
12477;DHT22;6303;51.504;6.300;2023-04-01T03:36:07;22.20;55.10
12477;DHT22;6303;51.504;6.300;2023-04-01T03:38:37;22.20;55.10
12477;DHT22;6303;51.504;6.300;2023-04-01T03:41:04;22.20;55.10
12477;DHT22;6303;51.504;6.300;2023-04-01T03:43:32;22.10;55.10
12477;DHT22;6303;51.504;6.300;2023-04-01T03:46:00;22.20;55.10
12477;DHT22;6303;51.504;6.300;2023-04-01T03:48:29;22.20;55.10
12477;DHT22;6303;51.504;6.300;2023-04-01T03:50:56;22.10;55.00
12477;DHT22;6303;51.504;6.300;2023-04-01T03:53:23;22.20;55.00
12477;DHT22;6303;51.504;6.300;2023-04-01T03:55:52;22.20;55.70
12477;DHT22;6303;51.504;6.300;2023-04-01T03:58:19;22.20;55.00
12477;DHT22;6303;51.504;6.300;2023-04-01T04:00:46;22.20;55.00
12477;DHT22;6303;51.504;6.300;2023-04-01T04:03:13;22.20;55.00
12477;DHT22;6303;51.504;6.300;2023-04-01T04:05:48;22.20;55.00
12477;DHT22;6303;51.504;6.300;2023-04-01T04:08:17;22.20;55.00
12477;DHT22;6303;51.504;6.300;2023-04-01T04:10:44;22.20;55.00
12477;DHT22;6303;51.504;6.300;2023-04-01T04:13:12;22.10;55.00
12477;DHT22;6303;51.504;6.300;2023-04-01T04:15:45;22.10;55.00
12477;DHT22;6303;51.504;6.300;2023-04-01T04:18:12;22.10;55.00
12477;DHT22;6303;51.504;6.300;2023-04-01T04:20:44;22.10;55.00
12477;DHT22;6303;51.504;6.300;2023-04-01T04:23:14;22.10;55.00
12477;DHT22;6303;51.504;6.300;2023-04-01T04:25:41;22.20;55.00
12477;DHT22;6303;51.504;6.300;2023-04-01T04:28:08;22.10;55.00
12477;DHT22;6303;51.504;6.300;2023-04-01T04:30:36;22.10;55.00
12477;DHT22;6303;51.504;6.300;2023-04-01T04:33:03;22.10;55.00
12477;DHT22;6303;51.504;6.300;2023-04-01T04:35:30;22.10;55.00
12477;DHT22;6303;51.504;6.300;2023-04-01T04:37:57;22.10;55.00
12477;DHT22;6303;51.504;6.300;2023-04-01T04:40:26;22.10;55.10
12477;DHT22;6303;51.504;6.300;2023-04-01T04:42:53;22.10;55.10
12477;DHT22;6303;51.504;6.300;2023-04-01T04:45:20;22.10;55.20
12477;DHT22;6303;51.504;6.300;2023-04-01T04:47:53;22.10;55.20
12477;DHT22;6303;51.504;6.300;2023-04-01T04:50:20;22.10;55.20
12477;DHT22;6303;51.504;6.300;2023-04-01T04:52:48;22.10;55.20
12477;DHT22;6303;51.504;6.300;2023-04-01T04:55:16;22.10;55.20
12477;DHT22;6303;51.504;6.300;2023-04-01T04:57:48;22.10;55.10
12477;DHT22;6303;51.504;6.300;2023-04-01T05:00:15;22.10;55.10
12477;DHT22;6303;51.504;6.300;2023-04-01T05:02:52;22.10;55.10
12477;DHT22;6303;51.504;6.300;2023-04-01T05:05:20;22.10;55.20
12477;DHT22;6303;51.504;6.300;2023-04-01T05:07:47;22.10;55.10
12477;DHT22;6303;51.504;6.300;2023-04-01T05:10:14;22.10;55.10
12477;DHT22;6303;51.504;6.300;2023-04-01T05:12:41;22.10;55.10
12477;DHT22;6303;51.504;6.300;2023-04-01T05:15:12;22.10;55.10
12477;DHT22;6303;51.504;6.300;2023-04-01T05:17:41;22.10;55.10
12477;DHT22;6303;51.504;6.300;2023-04-01T05:20:11;22.10;55.20
12477;DHT22;6303;51.504;6.300;2023-04-01T05:22:38;22.10;55.10
12477;DHT22;6303;51.504;6.300;2023-04-01T05:25:06;22.10;55.10
12477;DHT22;6303;51.504;6.300;2023-04-01T05:27:33;22.10;55.10
12477;DHT22;6303;51.504;6.300;2023-04-01T05:30:01;22.10;55.10
12477;DHT22;6303;51.504;6.300;2023-04-01T05:32:55;22.10;55.10
12477;DHT22;6303;51.504;6.300;2023-04-01T05:35:23;22.10;55.20
12477;DHT22;6303;51.504;6.300;2023-04-01T05:37:50;22.10;55.10
12477;DHT22;6303;51.504;6.300;2023-04-01T05:40:17;22.10;55.10
12477;DHT22;6303;51.504;6.300;2023-04-01T05:42:44;22.10;55.00
12477;DHT22;6303;51.504;6.300;2023-04-01T05:45:11;22.10;55.00
12477;DHT22;6303;51.504;6.300;2023-04-01T05:48:01;22.10;55.00
12477;DHT22;6303;51.504;6.300;2023-04-01T05:50:34;22.10;55.00
12477;DHT22;6303;51.504;6.300;2023-04-01T05:53:02;22.10;55.00
12477;DHT22;6303;51.504;6.300;2023-04-01T05:55:29;22.10;54.90
12477;DHT22;6303;51.504;6.300;2023-04-01T05:57:57;22.10;54.90
12477;DHT22;6303;51.504;6.300;2023-04-01T06:00:27;22.10;54.90
12477;DHT22;6303;51.504;6.300;2023-04-01T06:02:58;22.10;54.90
12477;DHT22;6303;51.504;6.300;2023-04-01T06:05:28;22.10;54.90
12477;DHT22;6303;51.504;6.300;2023-04-01T06:07:58;22.10;54.90
12477;DHT22;6303;51.504;6.300;2023-04-01T06:10:36;22.10;54.90
12477;DHT22;6303;51.504;6.300;2023-04-01T06:13:07;22.10;54.90
12477;DHT22;6303;51.504;6.300;2023-04-01T06:15:42;22.10;54.90
12477;DHT22;6303;51.504;6.300;2023-04-01T06:18:41;22.10;54.90
12477;DHT22;6303;51.504;6.300;2023-04-01T06:21:28;22.10;54.90
12477;DHT22;6303;51.504;6.300;2023-04-01T06:24:13;22.10;54.90
12477;DHT22;6303;51.504;6.300;2023-04-01T06:26:49;22.10;54.80
12477;DHT22;6303;51.504;6.300;2023-04-01T06:29:41;22.10;54.80
12477;DHT22;6303;51.504;6.300;2023-04-01T06:32:31;22.10;54.80
12477;DHT22;6303;51.504;6.300;2023-04-01T06:35:17;22.10;54.80
12477;DHT22;6303;51.504;6.300;2023-04-01T06:38:08;22.20;54.80
12477;DHT22;6303;51.504;6.300;2023-04-01T06:41:06;22.20;54.80
12477;DHT22;6303;51.504;6.300;2023-04-01T06:43:46;22.10;54.80
12477;DHT22;6303;51.504;6.300;2023-04-01T06:46:44;22.10;54.80
12477;DHT22;6303;51.504;6.300;2023-04-01T06:49:48;22.20;54.80
12477;DHT22;6303;51.504;6.300;2023-04-01T06:52:47;22.10;54.80
12477;DHT22;6303;51.504;6.300;2023-04-01T06:55:40;22.10;54.80
12477;DHT22;6303;51.504;6.300;2023-04-01T06:58:34;22.10;54.80
12477;DHT22;6303;51.504;6.300;2023-04-01T07:01:06;22.10;54.90
12477;DHT22;6303;51.504;6.300;2023-04-01T07:03:38;22.10;54.80
12477;DHT22;6303;51.504;6.300;2023-04-01T07:06:09;22.10;54.80
12477;DHT22;6303;51.504;6.300;2023-04-01T07:08:47;22.10;54.70
12477;DHT22;6303;51.504;6.300;2023-04-01T07:11:25;22.10;54.70
12477;DHT22;6303;51.504;6.300;2023-04-01T07:14:18;22.10;54.70
12477;DHT22;6303;51.504;6.300;2023-04-01T07:16:51;22.10;54.70
12477;DHT22;6303;51.504;6.300;2023-04-01T07:19:21;22.20;54.70
12477;DHT22;6303;51.504;6.300;2023-04-01T07:22:05;22.20;54.70
12477;DHT22;6303;51.504;6.300;2023-04-01T07:24:53;22.20;54.70
12477;DHT22;6303;51.504;6.300;2023-04-01T07:27:25;22.20;54.60
12477;DHT22;6303;51.504;6.300;2023-04-01T07:29:55;22.20;54.60
12477;DHT22;6303;51.504;6.300;2023-04-01T07:32:31;22.20;54.60
12477;DHT22;6303;51.504;6.300;2023-04-01T07:35:07;22.20;54.60
12477;DHT22;6303;51.504;6.300;2023-04-01T07:37:43;22.20;54.50
12477;DHT22;6303;51.504;6.300;2023-04-01T07:40:20;22.20;54.50
12477;DHT22;6303;51.504;6.300;2023-04-01T07:43:03;22.20;54.50
12477;DHT22;6303;51.504;6.300;2023-04-01T07:45:43;22.30;54.50
12477;DHT22;6303;51.504;6.300;2023-04-01T07:48:21;22.30;54.50
12477;DHT22;6303;51.504;6.300;2023-04-01T07:50:57;22.20;54.50
12477;DHT22;6303;51.504;6.300;2023-04-01T07:53:34;22.30;54.50
12477;DHT22;6303;51.504;6.300;2023-04-01T07:56:07;22.30;54.50
12477;DHT22;6303;51.504;6.300;2023-04-01T07:58:47;22.30;54.40
12477;DHT22;6303;51.504;6.300;2023-04-01T08:01:40;22.30;54.40
12477;DHT22;6303;51.504;6.300;2023-04-01T08:04:27;22.30;54.30
12477;DHT22;6303;51.504;6.300;2023-04-01T08:07:05;22.30;54.30
12477;DHT22;6303;51.504;6.300;2023-04-01T08:09:43;22.40;54.30
12477;DHT22;6303;51.504;6.300;2023-04-01T08:12:37;22.40;54.30
12477;DHT22;6303;51.504;6.300;2023-04-01T08:15:55;22.40;54.30
12477;DHT22;6303;51.504;6.300;2023-04-01T08:18:43;22.40;54.20
12477;DHT22;6303;51.504;6.300;2023-04-01T08:21:18;22.40;54.20
12477;DHT22;6303;51.504;6.300;2023-04-01T08:23:52;22.40;54.20
12477;DHT22;6303;51.504;6.300;2023-04-01T08:26:29;22.40;54.30
12477;DHT22;6303;51.504;6.300;2023-04-01T08:29:01;22.40;54.10
12477;DHT22;6303;51.504;6.300;2023-04-01T08:31:34;22.50;54.20
12477;DHT22;6303;51.504;6.300;2023-04-01T08:34:03;22.60;54.20
12477;DHT22;6303;51.504;6.300;2023-04-01T08:36:35;22.60;54.40
12477;DHT22;6303;51.504;6.300;2023-04-01T08:39:17;22.50;54.50
12477;DHT22;6303;51.504;6.300;2023-04-01T08:42:06;22.50;54.60
12477;DHT22;6303;51.504;6.300;2023-04-01T08:44:58;22.60;54.60
12477;DHT22;6303;51.504;6.300;2023-04-01T08:47:46;22.60;54.50
12477;DHT22;6303;51.504;6.300;2023-04-01T08:50:31;22.60;54.50
12477;DHT22;6303;51.504;6.300;2023-04-01T08:53:32;22.70;54.50
12477;DHT22;6303;51.504;6.300;2023-04-01T08:56:13;22.80;55.10
12477;DHT22;6303;51.504;6.300;2023-04-01T08:58:59;22.80;54.40
12477;DHT22;6303;51.504;6.300;2023-04-01T09:01:58;22.80;54.20
12477;DHT22;6303;51.504;6.300;2023-04-01T09:08:30;22.90;54.10
12477;DHT22;6303;51.504;6.300;2023-04-01T09:11:17;22.90;54.20
12477;DHT22;6303;51.504;6.300;2023-04-01T09:14:41;22.80;54.10
12477;DHT22;6303;51.504;6.300;2023-04-01T09:17:35;22.80;54.30
12477;DHT22;6303;51.504;6.300;2023-04-01T09:20:19;22.80;54.20
12477;DHT22;6303;51.504;6.300;2023-04-01T09:23:10;22.90;54.20
12477;DHT22;6303;51.504;6.300;2023-04-01T09:25:53;22.90;54.30
12477;DHT22;6303;51.504;6.300;2023-04-01T09:28:28;22.90;54.10
12477;DHT22;6303;51.504;6.300;2023-04-01T09:31:25;22.90;54.10
12477;DHT22;6303;51.504;6.300;2023-04-01T09:34:45;23.00;54.10
12477;DHT22;6303;51.504;6.300;2023-04-01T09:37:21;23.00;54.10
12477;DHT22;6303;51.504;6.300;2023-04-01T09:40:17;23.10;54.10
12477;DHT22;6303;51.504;6.300;2023-04-01T09:43:05;23.10;54.10
12477;DHT22;6303;51.504;6.300;2023-04-01T09:45:47;23.00;54.20
12477;DHT22;6303;51.504;6.300;2023-04-01T09:48:25;23.00;54.20
12477;DHT22;6303;51.504;6.300;2023-04-01T09:51:03;23.00;54.30
12477;DHT22;6303;51.504;6.300;2023-04-01T09:53:46;23.00;54.00
12477;DHT22;6303;51.504;6.300;2023-04-01T09:56:44;23.00;54.10
12477;DHT22;6303;51.504;6.300;2023-04-01T10:00:05;23.00;54.80
12477;DHT22;6303;51.504;6.300;2023-04-01T10:03:22;23.00;54.60
12477;DHT22;6303;51.504;6.300;2023-04-01T10:06:13;23.90;55.10
12477;DHT22;6303;51.504;6.300;2023-04-01T10:09:09;22.90;54.60
12477;DHT22;6303;51.504;6.300;2023-04-01T10:15:34;22.70;54.90
12477;DHT22;6303;51.504;6.300;2023-04-01T10:21:27;22.70;54.80
12477;DHT22;6303;51.504;6.300;2023-04-01T10:24:18;22.70;54.80
12477;DHT22;6303;51.504;6.300;2023-04-01T10:27:27;22.70;54.70
12477;DHT22;6303;51.504;6.300;2023-04-01T10:33:15;22.70;54.70
12477;DHT22;6303;51.504;6.300;2023-04-01T10:39:17;22.80;54.60
12477;DHT22;6303;51.504;6.300;2023-04-01T10:42:19;22.80;54.60
12477;DHT22;6303;51.504;6.300;2023-04-01T10:45:46;22.80;54.60
12477;DHT22;6303;51.504;6.300;2023-04-01T10:51:24;22.90;54.40
12477;DHT22;6303;51.504;6.300;2023-04-01T10:54:12;22.90;54.40
12477;DHT22;6303;51.504;6.300;2023-04-01T10:57:19;23.00;54.30
12477;DHT22;6303;51.504;6.300;2023-04-01T11:00:46;22.90;54.20
12477;DHT22;6303;51.504;6.300;2023-04-01T11:08:08;22.90;54.40
12477;DHT22;6303;51.504;6.300;2023-04-01T11:14:12;23.00;54.00
12477;DHT22;6303;51.504;6.300;2023-04-01T11:17:10;23.00;53.90
12477;DHT22;6303;51.504;6.300;2023-04-01T11:20:01;23.00;53.90
12477;DHT22;6303;51.504;6.300;2023-04-01T11:22:51;22.90;53.90
12477;DHT22;6303;51.504;6.300;2023-04-01T11:25:59;22.90;53.80
12477;DHT22;6303;51.504;6.300;2023-04-01T11:29:03;22.90;53.80
12477;DHT22;6303;51.504;6.300;2023-04-01T11:31:43;22.90;54.30
12477;DHT22;6303;51.504;6.300;2023-04-01T11:34:20;22.90;53.70
12477;DHT22;6303;51.504;6.300;2023-04-01T11:36:59;22.90;54.30
12477;DHT22;6303;51.504;6.300;2023-04-01T11:39:36;23.00;53.70
12477;DHT22;6303;51.504;6.300;2023-04-01T11:42:47;23.00;53.60
12477;DHT22;6303;51.504;6.300;2023-04-01T11:45:45;23.00;53.60
12477;DHT22;6303;51.504;6.300;2023-04-01T11:48:28;23.00;53.50
12477;DHT22;6303;51.504;6.300;2023-04-01T11:51:26;23.00;53.50
12477;DHT22;6303;51.504;6.300;2023-04-01T11:54:02;23.00;53.50
12477;DHT22;6303;51.504;6.300;2023-04-01T11:56:41;23.00;53.50
12477;DHT22;6303;51.504;6.300;2023-04-01T11:59:36;23.00;53.40
12477;DHT22;6303;51.504;6.300;2023-04-01T12:02:11;23.10;53.80
12477;DHT22;6303;51.504;6.300;2023-04-01T12:04:58;23.10;54.30
12477;DHT22;6303;51.504;6.300;2023-04-01T12:07:45;23.10;54.00
12477;DHT22;6303;51.504;6.300;2023-04-01T12:10:20;23.00;54.10
12477;DHT22;6303;51.504;6.300;2023-04-01T12:12:54;23.00;54.20
12477;DHT22;6303;51.504;6.300;2023-04-01T12:15:32;22.90;54.30
12477;DHT22;6303;51.504;6.300;2023-04-01T12:18:10;22.90;54.40
12477;DHT22;6303;51.504;6.300;2023-04-01T12:20:49;22.90;54.40
12477;DHT22;6303;51.504;6.300;2023-04-01T12:23:45;22.90;54.50
12477;DHT22;6303;51.504;6.300;2023-04-01T12:26:41;22.90;54.70
12477;DHT22;6303;51.504;6.300;2023-04-01T12:29:41;22.90;54.60
12477;DHT22;6303;51.504;6.300;2023-04-01T12:32:20;23.00;54.50
12477;DHT22;6303;51.504;6.300;2023-04-01T12:35:10;22.90;54.60
12477;DHT22;6303;51.504;6.300;2023-04-01T12:37:45;22.90;54.60
12477;DHT22;6303;51.504;6.300;2023-04-01T12:40:24;22.90;54.60
12477;DHT22;6303;51.504;6.300;2023-04-01T12:43:18;22.90;54.70
12477;DHT22;6303;51.504;6.300;2023-04-01T12:45:54;22.90;54.70
12477;DHT22;6303;51.504;6.300;2023-04-01T12:49:02;22.90;54.60
12477;DHT22;6303;51.504;6.300;2023-04-01T12:51:55;22.90;54.70
12477;DHT22;6303;51.504;6.300;2023-04-01T12:54:47;23.00;54.70
12477;DHT22;6303;51.504;6.300;2023-04-01T12:57:33;22.90;54.70
12477;DHT22;6303;51.504;6.300;2023-04-01T13:00:22;23.00;54.60
12477;DHT22;6303;51.504;6.300;2023-04-01T13:03:03;23.00;54.60
12477;DHT22;6303;51.504;6.300;2023-04-01T13:06:09;23.00;54.60
12477;DHT22;6303;51.504;6.300;2023-04-01T13:08:48;23.00;54.60
12477;DHT22;6303;51.504;6.300;2023-04-01T13:11:21;23.00;54.60
12477;DHT22;6303;51.504;6.300;2023-04-01T13:14:26;23.00;54.60
12477;DHT22;6303;51.504;6.300;2023-04-01T13:17:07;23.10;54.50
12477;DHT22;6303;51.504;6.300;2023-04-01T13:19:39;23.20;54.30
12477;DHT22;6303;51.504;6.300;2023-04-01T13:22:16;23.20;54.10
12477;DHT22;6303;51.504;6.300;2023-04-01T13:24:52;23.30;54.20
12477;DHT22;6303;51.504;6.300;2023-04-01T13:27:29;23.30;54.10
12477;DHT22;6303;51.504;6.300;2023-04-01T13:30:11;23.30;54.00
12477;DHT22;6303;51.504;6.300;2023-04-01T13:32:49;23.30;54.00
12477;DHT22;6303;51.504;6.300;2023-04-01T13:35:24;23.30;54.00
12477;DHT22;6303;51.504;6.300;2023-04-01T13:38:06;23.30;54.00
12477;DHT22;6303;51.504;6.300;2023-04-01T13:40:47;23.30;54.00
12477;DHT22;6303;51.504;6.300;2023-04-01T13:43:19;23.30;54.00
12477;DHT22;6303;51.504;6.300;2023-04-01T13:46:08;23.30;54.00
12477;DHT22;6303;51.504;6.300;2023-04-01T13:49:05;23.30;54.00
12477;DHT22;6303;51.504;6.300;2023-04-01T13:58:35;23.20;54.30
12477;DHT22;6303;51.504;6.300;2023-04-01T14:01:10;23.20;54.30
12477;DHT22;6303;51.504;6.300;2023-04-01T14:03:56;23.20;54.30
12477;DHT22;6303;51.504;6.300;2023-04-01T14:06:37;23.20;54.30
12477;DHT22;6303;51.504;6.300;2023-04-01T14:09:15;23.20;54.30
12477;DHT22;6303;51.504;6.300;2023-04-01T14:11:52;23.20;54.30
12477;DHT22;6303;51.504;6.300;2023-04-01T14:14:30;23.10;54.40
12477;DHT22;6303;51.504;6.300;2023-04-01T14:17:07;23.10;54.50
12477;DHT22;6303;51.504;6.300;2023-04-01T14:19:56;23.10;54.40
12477;DHT22;6303;51.504;6.300;2023-04-01T14:22:33;23.10;54.60
12477;DHT22;6303;51.504;6.300;2023-04-01T14:25:25;23.10;54.60
12477;DHT22;6303;51.504;6.300;2023-04-01T14:28:07;23.10;54.50
12477;DHT22;6303;51.504;6.300;2023-04-01T14:30:55;23.10;54.70
12477;DHT22;6303;51.504;6.300;2023-04-01T14:33:33;23.20;54.60
12477;DHT22;6303;51.504;6.300;2023-04-01T14:36:37;23.20;54.60
12477;DHT22;6303;51.504;6.300;2023-04-01T14:39:15;23.20;54.50
12477;DHT22;6303;51.504;6.300;2023-04-01T14:41:59;23.10;54.50
12477;DHT22;6303;51.504;6.300;2023-04-01T14:44:45;23.10;54.60
12477;DHT22;6303;51.504;6.300;2023-04-01T14:47:28;23.00;54.60
12477;DHT22;6303;51.504;6.300;2023-04-01T14:50:08;23.00;55.00
12477;DHT22;6303;51.504;6.300;2023-04-01T14:52:41;22.90;55.10
12477;DHT22;6303;51.504;6.300;2023-04-01T14:55:21;22.90;55.20
12477;DHT22;6303;51.504;6.300;2023-04-01T14:57:59;23.00;55.30
12477;DHT22;6303;51.504;6.300;2023-04-01T15:00:27;22.90;55.30
12477;DHT22;6303;51.504;6.300;2023-04-01T15:03:06;22.90;55.30
12477;DHT22;6303;51.504;6.300;2023-04-01T15:05:43;22.90;55.30
12477;DHT22;6303;51.504;6.300;2023-04-01T15:08:23;22.90;55.30
12477;DHT22;6303;51.504;6.300;2023-04-01T15:14:27;22.90;55.40
12477;DHT22;6303;51.504;6.300;2023-04-01T15:17:18;22.90;55.30
12477;DHT22;6303;51.504;6.300;2023-04-01T15:20:02;22.90;55.30
12477;DHT22;6303;51.504;6.300;2023-04-01T15:22:42;22.90;55.30
12477;DHT22;6303;51.504;6.300;2023-04-01T15:25:23;22.90;55.30
12477;DHT22;6303;51.504;6.300;2023-04-01T15:27:56;22.90;55.30
12477;DHT22;6303;51.504;6.300;2023-04-01T15:30:33;22.90;55.30
12477;DHT22;6303;51.504;6.300;2023-04-01T15:33:17;22.90;55.30
12477;DHT22;6303;51.504;6.300;2023-04-01T15:35:49;22.90;55.30
12477;DHT22;6303;51.504;6.300;2023-04-01T15:38:25;22.90;55.30
12477;DHT22;6303;51.504;6.300;2023-04-01T15:41:01;22.90;55.30
12477;DHT22;6303;51.504;6.300;2023-04-01T15:43:40;22.90;55.30
12477;DHT22;6303;51.504;6.300;2023-04-01T15:46:21;22.90;55.30
12477;DHT22;6303;51.504;6.300;2023-04-01T15:48:57;22.90;55.30
12477;DHT22;6303;51.504;6.300;2023-04-01T15:51:45;23.00;55.30
12477;DHT22;6303;51.504;6.300;2023-04-01T15:54:38;23.00;55.10
12477;DHT22;6303;51.504;6.300;2023-04-01T15:57:23;23.10;55.10
12477;DHT22;6303;51.504;6.300;2023-04-01T16:00:13;23.10;55.00
12477;DHT22;6303;51.504;6.300;2023-04-01T16:02:47;23.10;55.00
12477;DHT22;6303;51.504;6.300;2023-04-01T16:05:32;23.10;55.20
12477;DHT22;6303;51.504;6.300;2023-04-01T16:08:28;23.10;55.50
12477;DHT22;6303;51.504;6.300;2023-04-01T16:11:06;23.20;56.10
12477;DHT22;6303;51.504;6.300;2023-04-01T16:13:54;23.10;58.40
12477;DHT22;6303;51.504;6.300;2023-04-01T16:16:35;23.10;59.50
12477;DHT22;6303;51.504;6.300;2023-04-01T16:19:21;23.10;60.30
12477;DHT22;6303;51.504;6.300;2023-04-01T16:21:54;23.10;60.10
12477;DHT22;6303;51.504;6.300;2023-04-01T16:24:31;22.90;59.40
12477;DHT22;6303;51.504;6.300;2023-04-01T16:27:02;22.90;59.50
12477;DHT22;6303;51.504;6.300;2023-04-01T16:29:40;22.90;59.00
12477;DHT22;6303;51.504;6.300;2023-04-01T16:32:19;22.60;58.70
12477;DHT22;6303;51.504;6.300;2023-04-01T16:34:58;22.80;58.90
12477;DHT22;6303;51.504;6.300;2023-04-01T16:37:36;22.70;58.70
12477;DHT22;6303;51.504;6.300;2023-04-01T16:40:13;22.70;58.70
12477;DHT22;6303;51.504;6.300;2023-04-01T16:42:48;22.70;58.60
12477;DHT22;6303;51.504;6.300;2023-04-01T16:45:28;22.70;58.40
12477;DHT22;6303;51.504;6.300;2023-04-01T16:48:01;22.60;58.30
12477;DHT22;6303;51.504;6.300;2023-04-01T16:50:43;22.60;58.10
12477;DHT22;6303;51.504;6.300;2023-04-01T16:53:17;22.70;58.10
12477;DHT22;6303;51.504;6.300;2023-04-01T16:55:49;22.60;58.00
12477;DHT22;6303;51.504;6.300;2023-04-01T16:58:23;22.70;57.80
12477;DHT22;6303;51.504;6.300;2023-04-01T17:00:58;22.70;57.40
12477;DHT22;6303;51.504;6.300;2023-04-01T17:03:29;22.60;57.40
12477;DHT22;6303;51.504;6.300;2023-04-01T17:06:17;22.70;57.00
12477;DHT22;6303;51.504;6.300;2023-04-01T17:08:58;22.80;56.70
12477;DHT22;6303;51.504;6.300;2023-04-01T17:11:31;22.80;56.60
12477;DHT22;6303;51.504;6.300;2023-04-01T17:14:13;22.80;56.90
12477;DHT22;6303;51.504;6.300;2023-04-01T17:17:06;22.70;56.30
12477;DHT22;6303;51.504;6.300;2023-04-01T17:19:45;22.80;56.50
12477;DHT22;6303;51.504;6.300;2023-04-01T17:22:25;22.80;56.50
12477;DHT22;6303;51.504;6.300;2023-04-01T17:25:07;22.80;56.50
12477;DHT22;6303;51.504;6.300;2023-04-01T17:27:41;22.80;56.70
12477;DHT22;6303;51.504;6.300;2023-04-01T17:30:20;22.70;57.00
12477;DHT22;6303;51.504;6.300;2023-04-01T17:35:52;22.60;57.40
12477;DHT22;6303;51.504;6.300;2023-04-01T17:38:34;22.50;57.60
12477;DHT22;6303;51.504;6.300;2023-04-01T17:41:13;22.50;57.80